sensor_id;sensor_type;location;lat;lon;timestamp;P1;durP1;ratioP1;P2;durP2;ratioP2
58338;SDS011;48278;52.704;6.536;2023-02-22T00:01:08;70.45;;;19.25;;
58338;SDS011;48278;52.704;6.536;2023-02-22T00:03:46;68.55;;;19.33;;
58338;SDS011;48278;52.704;6.536;2023-02-22T00:06:15;67.25;;;18.58;;
58338;SDS011;48278;52.704;6.536;2023-02-22T00:08:42;66.95;;;19.33;;
58338;SDS011;48278;52.704;6.536;2023-02-22T00:11:08;67.60;;;20.63;;
58338;SDS011;48278;52.704;6.536;2023-02-22T00:13:34;67.43;;;19.55;;
58338;SDS011;48278;52.704;6.536;2023-02-22T00:16:01;71.28;;;19.63;;
58338;SDS011;48278;52.704;6.536;2023-02-22T00:18:27;66.63;;;18.48;;
58338;SDS011;48278;52.704;6.536;2023-02-22T00:20:57;72.65;;;20.20;;
58338;SDS011;48278;52.704;6.536;2023-02-22T00:23:24;56.70;;;16.92;;
58338;SDS011;48278;52.704;6.536;2023-02-22T00:25:52;61.05;;;18.23;;
58338;SDS011;48278;52.704;6.536;2023-02-22T00:30:47;63.90;;;17.08;;
58338;SDS011;48278;52.704;6.536;2023-02-22T00:33:13;60.78;;;17.17;;
58338;SDS011;48278;52.704;6.536;2023-02-22T00:35:41;58.88;;;15.63;;
58338;SDS011;48278;52.704;6.536;2023-02-22T00:38:10;52.28;;;16.08;;
58338;SDS011;48278;52.704;6.536;2023-02-22T00:40:37;55.83;;;16.23;;
58338;SDS011;48278;52.704;6.536;2023-02-22T00:43:04;58.47;;;15.88;;
58338;SDS011;48278;52.704;6.536;2023-02-22T00:45:31;57.88;;;16.30;;
58338;SDS011;48278;52.704;6.536;2023-02-22T00:47:58;58.55;;;17.10;;
58338;SDS011;48278;52.704;6.536;2023-02-22T00:50:25;53.47;;;16.35;;
58338;SDS011;48278;52.704;6.536;2023-02-22T00:52:52;53.33;;;16.40;;
58338;SDS011;48278;52.704;6.536;2023-02-22T00:55:27;58.13;;;15.25;;
58338;SDS011;48278;52.704;6.536;2023-02-22T00:57:54;53.63;;;14.88;;
58338;SDS011;48278;52.704;6.536;2023-02-22T01:00:26;56.33;;;16.42;;
58338;SDS011;48278;52.704;6.536;2023-02-22T01:02:53;52.08;;;15.40;;
58338;SDS011;48278;52.704;6.536;2023-02-22T01:05:23;55.22;;;16.25;;
58338;SDS011;48278;52.704;6.536;2023-02-22T01:07:51;51.03;;;15.45;;
58338;SDS011;48278;52.704;6.536;2023-02-22T01:10:18;54.10;;;16.55;;
58338;SDS011;48278;52.704;6.536;2023-02-22T01:12:46;58.53;;;15.85;;
58338;SDS011;48278;52.704;6.536;2023-02-22T01:15:14;64.43;;;16.55;;
58338;SDS011;48278;52.704;6.536;2023-02-22T01:17:41;59.88;;;17.17;;
58338;SDS011;48278;52.704;6.536;2023-02-22T01:20:08;61.63;;;17.58;;
58338;SDS011;48278;52.704;6.536;2023-02-22T01:22:37;60.22;;;17.73;;
58338;SDS011;48278;52.704;6.536;2023-02-22T01:25:08;66.15;;;17.23;;
58338;SDS011;48278;52.704;6.536;2023-02-22T01:27:35;67.43;;;18.23;;
58338;SDS011;48278;52.704;6.536;2023-02-22T01:30:01;70.32;;;19.13;;
58338;SDS011;48278;52.704;6.536;2023-02-22T01:32:33;74.90;;;20.98;;
58338;SDS011;48278;52.704;6.536;2023-02-22T01:35:00;68.50;;;18.60;;
58338;SDS011;48278;52.704;6.536;2023-02-22T01:37:29;69.03;;;20.05;;
58338;SDS011;48278;52.704;6.536;2023-02-22T01:39:56;63.60;;;18.45;;
58338;SDS011;48278;52.704;6.536;2023-02-22T01:42:22;67.82;;;19.30;;
58338;SDS011;48278;52.704;6.536;2023-02-22T01:47:52;62.85;;;18.60;;
58338;SDS011;48278;52.704;6.536;2023-02-22T01:50:19;62.03;;;18.27;;
58338;SDS011;48278;52.704;6.536;2023-02-22T01:52:46;73.32;;;18.88;;
58338;SDS011;48278;52.704;6.536;2023-02-22T01:55:12;61.85;;;17.98;;
58338;SDS011;48278;52.704;6.536;2023-02-22T01:57:38;58.53;;;17.55;;
58338;SDS011;48278;52.704;6.536;2023-02-22T02:00:06;60.90;;;17.88;;
58338;SDS011;48278;52.704;6.536;2023-02-22T02:02:35;59.05;;;17.13;;
58338;SDS011;48278;52.704;6.536;2023-02-22T02:05:04;60.88;;;17.13;;
58338;SDS011;48278;52.704;6.536;2023-02-22T02:07:32;59.42;;;15.90;;
58338;SDS011;48278;52.704;6.536;2023-02-22T02:10:00;57.17;;;16.35;;
58338;SDS011;48278;52.704;6.536;2023-02-22T02:12:38;56.60;;;15.65;;
58338;SDS011;48278;52.704;6.536;2023-02-22T02:17:41;53.35;;;14.75;;
58338;SDS011;48278;52.704;6.536;2023-02-22T02:28:52;63.00;;;16.75;;
58338;SDS011;48278;52.704;6.536;2023-02-22T02:39:56;62.00;;;16.58;;
58338;SDS011;48278;52.704;6.536;2023-02-22T02:42:54;61.42;;;17.50;;
58338;SDS011;48278;52.704;6.536;2023-02-22T02:45:46;57.30;;;16.50;;
58338;SDS011;48278;52.704;6.536;2023-02-22T02:48:28;65.78;;;18.30;;
58338;SDS011;48278;52.704;6.536;2023-02-22T02:50:58;70.63;;;20.05;;
58338;SDS011;48278;52.704;6.536;2023-02-22T02:53:26;63.60;;;17.85;;
58338;SDS011;48278;52.704;6.536;2023-02-22T02:56:01;65.50;;;18.08;;
58338;SDS011;48278;52.704;6.536;2023-02-22T02:58:27;64.13;;;19.08;;
58338;SDS011;48278;52.704;6.536;2023-02-22T03:00:55;62.70;;;17.13;;
58338;SDS011;48278;52.704;6.536;2023-02-22T03:09:01;71.80;;;19.13;;
58338;SDS011;48278;52.704;6.536;2023-02-22T03:12:07;75.03;;;20.42;;
58338;SDS011;48278;52.704;6.536;2023-02-22T03:17:22;76.53;;;21.85;;
58338;SDS011;48278;52.704;6.536;2023-02-22T03:28:22;75.97;;;20.80;;
58338;SDS011;48278;52.704;6.536;2023-02-22T03:30:52;69.68;;;21.13;;
58338;SDS011;48278;52.704;6.536;2023-02-22T03:33:33;80.15;;;21.58;;
58338;SDS011;48278;52.704;6.536;2023-02-22T03:36:14;81.00;;;23.10;;
58338;SDS011;48278;52.704;6.536;2023-02-22T03:38:46;80.28;;;23.45;;
58338;SDS011;48278;52.704;6.536;2023-02-22T03:41:14;84.47;;;23.42;;
58338;SDS011;48278;52.704;6.536;2023-02-22T03:43:48;85.40;;;24.42;;
58338;SDS011;48278;52.704;6.536;2023-02-22T03:46:18;79.60;;;23.17;;
58338;SDS011;48278;52.704;6.536;2023-02-22T03:51:24;83.55;;;24.13;;
58338;SDS011;48278;52.704;6.536;2023-02-22T03:53:51;84.38;;;24.83;;
58338;SDS011;48278;52.704;6.536;2023-02-22T03:56:19;93.18;;;25.85;;
58338;SDS011;48278;52.704;6.536;2023-02-22T03:58:49;87.60;;;25.38;;
58338;SDS011;48278;52.704;6.536;2023-02-22T04:01:16;98.00;;;27.05;;
58338;SDS011;48278;52.704;6.536;2023-02-22T04:03:42;97.32;;;28.45;;
58338;SDS011;48278;52.704;6.536;2023-02-22T04:06:08;111.93;;;30.90;;
58338;SDS011;48278;52.704;6.536;2023-02-22T04:08:34;112.53;;;29.08;;
58338;SDS011;48278;52.704;6.536;2023-02-22T04:11:00;107.30;;;29.58;;
58338;SDS011;48278;52.704;6.536;2023-02-22T04:13:26;119.65;;;32.30;;
58338;SDS011;48278;52.704;6.536;2023-02-22T04:15:52;117.15;;;32.00;;
58338;SDS011;48278;52.704;6.536;2023-02-22T04:18:18;110.28;;;32.42;;
58338;SDS011;48278;52.704;6.536;2023-02-22T04:20:43;123.90;;;31.92;;
58338;SDS011;48278;52.704;6.536;2023-02-22T04:23:09;131.70;;;32.53;;
58338;SDS011;48278;52.704;6.536;2023-02-22T04:28:02;121.10;;;32.83;;
58338;SDS011;48278;52.704;6.536;2023-02-22T04:30:28;133.65;;;35.53;;
58338;SDS011;48278;52.704;6.536;2023-02-22T04:32:54;126.32;;;33.70;;
58338;SDS011;48278;52.704;6.536;2023-02-22T04:35:20;126.97;;;32.53;;
58338;SDS011;48278;52.704;6.536;2023-02-22T04:37:46;136.00;;;36.15;;
58338;SDS011;48278;52.704;6.536;2023-02-22T04:40:12;129.95;;;33.33;;
58338;SDS011;48278;52.704;6.536;2023-02-22T04:42:40;126.88;;;33.50;;
58338;SDS011;48278;52.704;6.536;2023-02-22T04:45:07;130.57;;;32.40;;
58338;SDS011;48278;52.704;6.536;2023-02-22T04:47:35;132.30;;;33.30;;
58338;SDS011;48278;52.704;6.536;2023-02-22T04:50:01;140.33;;;34.13;;
58338;SDS011;48278;52.704;6.536;2023-02-22T04:52:32;140.55;;;36.15;;
58338;SDS011;48278;52.704;6.536;2023-02-22T04:54:57;133.65;;;35.20;;
58338;SDS011;48278;52.704;6.536;2023-02-22T04:57:23;135.20;;;35.75;;
58338;SDS011;48278;52.704;6.536;2023-02-22T04:59:49;149.70;;;35.30;;
58338;SDS011;48278;52.704;6.536;2023-02-22T05:02:15;135.77;;;37.13;;
58338;SDS011;48278;52.704;6.536;2023-02-22T05:04:42;138.20;;;36.40;;
58338;SDS011;48278;52.704;6.536;2023-02-22T05:07:07;154.15;;;36.42;;
58338;SDS011;48278;52.704;6.536;2023-02-22T05:09:33;154.85;;;39.17;;
58338;SDS011;48278;52.704;6.536;2023-02-22T05:11:59;165.38;;;40.00;;
58338;SDS011;48278;52.704;6.536;2023-02-22T05:14:24;158.80;;;39.92;;
58338;SDS011;48278;52.704;6.536;2023-02-22T05:16:55;152.40;;;38.20;;
58338;SDS011;48278;52.704;6.536;2023-02-22T05:19:21;164.45;;;41.15;;
58338;SDS011;48278;52.704;6.536;2023-02-22T05:21:48;153.35;;;40.35;;
58338;SDS011;48278;52.704;6.536;2023-02-22T05:24:13;156.13;;;38.28;;
58338;SDS011;48278;52.704;6.536;2023-02-22T05:26:39;150.40;;;39.60;;
58338;SDS011;48278;52.704;6.536;2023-02-22T05:29:06;164.10;;;43.00;;
58338;SDS011;48278;52.704;6.536;2023-02-22T05:31:32;161.90;;;40.00;;
58338;SDS011;48278;52.704;6.536;2023-02-22T05:33:58;160.77;;;40.55;;
58338;SDS011;48278;52.704;6.536;2023-02-22T05:36:23;161.00;;;41.28;;
58338;SDS011;48278;52.704;6.536;2023-02-22T05:38:49;169.95;;;41.45;;
58338;SDS011;48278;52.704;6.536;2023-02-22T05:41:15;158.57;;;38.40;;
58338;SDS011;48278;52.704;6.536;2023-02-22T05:43:41;166.48;;;42.40;;
58338;SDS011;48278;52.704;6.536;2023-02-22T05:46:07;157.95;;;38.90;;
58338;SDS011;48278;52.704;6.536;2023-02-22T05:48:33;169.32;;;40.95;;
58338;SDS011;48278;52.704;6.536;2023-02-22T05:50:58;173.70;;;42.20;;
58338;SDS011;48278;52.704;6.536;2023-02-22T05:53:24;173.88;;;44.17;;
58338;SDS011;48278;52.704;6.536;2023-02-22T05:55:50;166.80;;;41.25;;
58338;SDS011;48278;52.704;6.536;2023-02-22T05:58:16;171.85;;;42.13;;
58338;SDS011;48278;52.704;6.536;2023-02-22T06:00:42;179.40;;;41.88;;
58338;SDS011;48278;52.704;6.536;2023-02-22T06:03:08;169.35;;;40.30;;
58338;SDS011;48278;52.704;6.536;2023-02-22T06:05:36;156.90;;;38.28;;
58338;SDS011;48278;52.704;6.536;2023-02-22T06:08:02;161.05;;;39.00;;
58338;SDS011;48278;52.704;6.536;2023-02-22T06:12:55;159.37;;;36.67;;
58338;SDS011;48278;52.704;6.536;2023-02-22T06:15:22;166.30;;;39.85;;
58338;SDS011;48278;52.704;6.536;2023-02-22T06:17:49;170.10;;;40.05;;
58338;SDS011;48278;52.704;6.536;2023-02-22T06:20:16;172.05;;;40.20;;
58338;SDS011;48278;52.704;6.536;2023-02-22T06:22:45;178.05;;;41.08;;
58338;SDS011;48278;52.704;6.536;2023-02-22T06:25:13;171.60;;;41.50;;
58338;SDS011;48278;52.704;6.536;2023-02-22T06:27:40;166.75;;;38.92;;
58338;SDS011;48278;52.704;6.536;2023-02-22T06:30:06;182.85;;;41.55;;
58338;SDS011;48278;52.704;6.536;2023-02-22T06:32:33;180.05;;;38.40;;
58338;SDS011;48278;52.704;6.536;2023-02-22T06:34:59;169.98;;;38.83;;
58338;SDS011;48278;52.704;6.536;2023-02-22T06:37:24;178.30;;;41.60;;
58338;SDS011;48278;52.704;6.536;2023-02-22T06:39:50;173.50;;;39.67;;
58338;SDS011;48278;52.704;6.536;2023-02-22T06:42:16;182.65;;;40.47;;
58338;SDS011;48278;52.704;6.536;2023-02-22T06:44:42;169.63;;;38.60;;
58338;SDS011;48278;52.704;6.536;2023-02-22T06:47:08;177.68;;;37.53;;
58338;SDS011;48278;52.704;6.536;2023-02-22T06:49:34;170.60;;;39.35;;
58338;SDS011;48278;52.704;6.536;2023-02-22T06:52:00;178.60;;;39.10;;
58338;SDS011;48278;52.704;6.536;2023-02-22T06:54:28;178.95;;;38.15;;
58338;SDS011;48278;52.704;6.536;2023-02-22T06:56:53;179.32;;;37.78;;
58338;SDS011;48278;52.704;6.536;2023-02-22T06:59:19;170.27;;;37.88;;
58338;SDS011;48278;52.704;6.536;2023-02-22T07:01:45;172.57;;;37.83;;
58338;SDS011;48278;52.704;6.536;2023-02-22T07:04:11;175.70;;;40.05;;
58338;SDS011;48278;52.704;6.536;2023-02-22T07:06:36;179.45;;;39.30;;
58338;SDS011;48278;52.704;6.536;2023-02-22T07:09:02;171.63;;;38.35;;
58338;SDS011;48278;52.704;6.536;2023-02-22T07:11:28;170.85;;;34.95;;
58338;SDS011;48278;52.704;6.536;2023-02-22T07:13:54;168.50;;;36.00;;
58338;SDS011;48278;52.704;6.536;2023-02-22T07:16:20;162.30;;;34.83;;
58338;SDS011;48278;52.704;6.536;2023-02-22T07:18:46;186.80;;;39.30;;
58338;SDS011;48278;52.704;6.536;2023-02-22T07:21:11;170.02;;;37.80;;
58338;SDS011;48278;52.704;6.536;2023-02-22T07:23:37;173.77;;;36.70;;
58338;SDS011;48278;52.704;6.536;2023-02-22T07:26:03;185.52;;;38.33;;
58338;SDS011;48278;52.704;6.536;2023-02-22T07:28:30;180.35;;;36.10;;
58338;SDS011;48278;52.704;6.536;2023-02-22T07:30:56;178.82;;;37.58;;
58338;SDS011;48278;52.704;6.536;2023-02-22T07:33:22;160.95;;;34.38;;
58338;SDS011;48278;52.704;6.536;2023-02-22T07:35:49;182.82;;;36.40;;
58338;SDS011;48278;52.704;6.536;2023-02-22T07:38:15;198.52;;;38.45;;
58338;SDS011;48278;52.704;6.536;2023-02-22T07:45:41;169.63;;;36.35;;
58338;SDS011;48278;52.704;6.536;2023-02-22T07:48:09;180.75;;;37.42;;
58338;SDS011;48278;52.704;6.536;2023-02-22T07:50:37;167.05;;;36.20;;
58338;SDS011;48278;52.704;6.536;2023-02-22T07:53:04;168.30;;;35.78;;
58338;SDS011;48278;52.704;6.536;2023-02-22T07:55:32;165.32;;;35.38;;
58338;SDS011;48278;52.704;6.536;2023-02-22T07:58:02;174.30;;;34.95;;
58338;SDS011;48278;52.704;6.536;2023-02-22T08:00:32;175.02;;;35.75;;
58338;SDS011;48278;52.704;6.536;2023-02-22T08:03:00;188.10;;;37.15;;
58338;SDS011;48278;52.704;6.536;2023-02-22T08:05:28;186.75;;;35.58;;
58338;SDS011;48278;52.704;6.536;2023-02-22T08:07:55;169.30;;;35.10;;
58338;SDS011;48278;52.704;6.536;2023-02-22T08:10:22;185.30;;;37.83;;
58338;SDS011;48278;52.704;6.536;2023-02-22T08:12:49;173.30;;;34.22;;
58338;SDS011;48278;52.704;6.536;2023-02-22T08:15:16;161.30;;;32.65;;
58338;SDS011;48278;52.704;6.536;2023-02-22T08:17:44;179.50;;;35.95;;
58338;SDS011;48278;52.704;6.536;2023-02-22T08:20:10;144.90;;;29.75;;
58338;SDS011;48278;52.704;6.536;2023-02-22T08:22:36;171.07;;;31.63;;
58338;SDS011;48278;52.704;6.536;2023-02-22T08:25:02;169.88;;;34.40;;
58338;SDS011;48278;52.704;6.536;2023-02-22T08:27:28;188.45;;;36.42;;
58338;SDS011;48278;52.704;6.536;2023-02-22T08:29:55;188.40;;;36.83;;
58338;SDS011;48278;52.704;6.536;2023-02-22T08:32:21;193.55;;;34.92;;
58338;SDS011;48278;52.704;6.536;2023-02-22T08:34:47;187.25;;;37.38;;
58338;SDS011;48278;52.704;6.536;2023-02-22T08:37:16;197.18;;;36.53;;
58338;SDS011;48278;52.704;6.536;2023-02-22T08:39:43;203.25;;;37.55;;
58338;SDS011;48278;52.704;6.536;2023-02-22T08:42:09;194.80;;;36.70;;
58338;SDS011;48278;52.704;6.536;2023-02-22T08:44:36;187.57;;;37.13;;
58338;SDS011;48278;52.704;6.536;2023-02-22T08:47:04;211.40;;;39.05;;
58338;SDS011;48278;52.704;6.536;2023-02-22T08:49:31;200.82;;;37.13;;
58338;SDS011;48278;52.704;6.536;2023-02-22T08:51:57;215.60;;;37.63;;
58338;SDS011;48278;52.704;6.536;2023-02-22T08:54:23;220.18;;;37.88;;
58338;SDS011;48278;52.704;6.536;2023-02-22T08:56:49;205.13;;;37.50;;
58338;SDS011;48278;52.704;6.536;2023-02-22T08:59:16;230.02;;;44.00;;
58338;SDS011;48278;52.704;6.536;2023-02-22T09:01:41;226.68;;;42.53;;
58338;SDS011;48278;52.704;6.536;2023-02-22T09:04:07;244.18;;;45.00;;
58338;SDS011;48278;52.704;6.536;2023-02-22T09:06:33;233.23;;;41.08;;
58338;SDS011;48278;52.704;6.536;2023-02-22T09:08:59;223.20;;;38.63;;
58338;SDS011;48278;52.704;6.536;2023-02-22T09:11:25;228.82;;;39.75;;
58338;SDS011;48278;52.704;6.536;2023-02-22T09:13:51;222.65;;;39.72;;
58338;SDS011;48278;52.704;6.536;2023-02-22T09:16:16;208.57;;;36.78;;
58338;SDS011;48278;52.704;6.536;2023-02-22T09:18:43;210.30;;;38.30;;
58338;SDS011;48278;52.704;6.536;2023-02-22T09:21:08;200.75;;;36.30;;
58338;SDS011;48278;52.704;6.536;2023-02-22T09:23:35;206.35;;;37.25;;
58338;SDS011;48278;52.704;6.536;2023-02-22T09:26:01;214.82;;;37.72;;
58338;SDS011;48278;52.704;6.536;2023-02-22T09:28:28;214.85;;;40.72;;
58338;SDS011;48278;52.704;6.536;2023-02-22T09:30:54;206.70;;;40.13;;
58338;SDS011;48278;52.704;6.536;2023-02-22T09:33:20;209.25;;;40.38;;
58338;SDS011;48278;52.704;6.536;2023-02-22T09:35:47;235.73;;;41.47;;
58338;SDS011;48278;52.704;6.536;2023-02-22T09:51:44;257.58;;;42.70;;
58338;SDS011;48278;52.704;6.536;2023-02-22T09:54:24;250.90;;;43.20;;
58338;SDS011;48278;52.704;6.536;2023-02-22T09:57:04;280.98;;;48.10;;
58338;SDS011;48278;52.704;6.536;2023-02-22T09:59:38;278.30;;;47.80;;
58338;SDS011;48278;52.704;6.536;2023-02-22T10:04:53;269.45;;;46.17;;
58338;SDS011;48278;52.704;6.536;2023-02-22T10:07:28;287.80;;;47.80;;
58338;SDS011;48278;52.704;6.536;2023-02-22T10:10:20;300.17;;;49.63;;
58338;SDS011;48278;52.704;6.536;2023-02-22T10:12:50;272.55;;;42.92;;
58338;SDS011;48278;52.704;6.536;2023-02-22T10:23:37;244.57;;;43.35;;
58338;SDS011;48278;52.704;6.536;2023-02-22T10:26:15;271.77;;;46.35;;
58338;SDS011;48278;52.704;6.536;2023-02-22T10:28:51;254.93;;;43.08;;
58338;SDS011;48278;52.704;6.536;2023-02-22T10:31:32;248.75;;;42.80;;
58338;SDS011;48278;52.704;6.536;2023-02-22T10:34:04;258.48;;;43.03;;
58338;SDS011;48278;52.704;6.536;2023-02-22T10:36:37;244.77;;;41.97;;
58338;SDS011;48278;52.704;6.536;2023-02-22T10:39:12;230.57;;;41.70;;
58338;SDS011;48278;52.704;6.536;2023-02-22T10:41:55;230.43;;;39.95;;
58338;SDS011;48278;52.704;6.536;2023-02-22T10:44:32;225.30;;;41.30;;
58338;SDS011;48278;52.704;6.536;2023-02-22T10:47:00;237.68;;;42.53;;
58338;SDS011;48278;52.704;6.536;2023-02-22T10:49:29;243.35;;;42.40;;
58338;SDS011;48278;52.704;6.536;2023-02-22T10:52:01;225.00;;;41.53;;
58338;SDS011;48278;52.704;6.536;2023-02-22T10:54:36;214.35;;;39.50;;
58338;SDS011;48278;52.704;6.536;2023-02-22T10:57:05;202.30;;;39.30;;
58338;SDS011;48278;52.704;6.536;2023-02-22T10:59:32;187.10;;;37.50;;
58338;SDS011;48278;52.704;6.536;2023-02-22T11:02:00;152.90;;;33.63;;
58338;SDS011;48278;52.704;6.536;2023-02-22T11:04:51;155.88;;;30.33;;
58338;SDS011;48278;52.704;6.536;2023-02-22T11:07:20;149.60;;;30.27;;
58338;SDS011;48278;52.704;6.536;2023-02-22T11:12:31;135.80;;;30.67;;
58338;SDS011;48278;52.704;6.536;2023-02-22T11:17:50;129.60;;;28.48;;
58338;SDS011;48278;52.704;6.536;2023-02-22T11:20:20;135.80;;;28.77;;
58338;SDS011;48278;52.704;6.536;2023-02-22T11:22:52;133.82;;;29.20;;
58338;SDS011;48278;52.704;6.536;2023-02-22T11:25:26;134.45;;;30.40;;
58338;SDS011;48278;52.704;6.536;2023-02-22T11:28:09;127.50;;;30.42;;
58338;SDS011;48278;52.704;6.536;2023-02-22T11:30:40;136.35;;;29.67;;
58338;SDS011;48278;52.704;6.536;2023-02-22T11:35:53;123.97;;;29.17;;
58338;SDS011;48278;52.704;6.536;2023-02-22T11:38:25;126.53;;;28.00;;
58338;SDS011;48278;52.704;6.536;2023-02-22T11:41:08;104.25;;;27.70;;
58338;SDS011;48278;52.704;6.536;2023-02-22T11:43:35;118.30;;;29.05;;
58338;SDS011;48278;52.704;6.536;2023-02-22T11:46:11;124.93;;;30.02;;
58338;SDS011;48278;52.704;6.536;2023-02-22T11:49:31;121.53;;;29.73;;
58338;SDS011;48278;52.704;6.536;2023-02-22T11:51:37;122.65;;;29.00;;
58338;SDS011;48278;52.704;6.536;2023-02-22T12:00:03;115.97;;;27.73;;
58338;SDS011;48278;52.704;6.536;2023-02-22T12:22:02;111.43;;;29.15;;
58338;SDS011;48278;52.704;6.536;2023-02-22T12:24:55;99.38;;;24.70;;
58338;SDS011;48278;52.704;6.536;2023-02-22T12:27:32;97.35;;;23.40;;
58338;SDS011;48278;52.704;6.536;2023-02-22T12:30:07;104.50;;;26.33;;
58338;SDS011;48278;52.704;6.536;2023-02-22T12:32:46;106.65;;;23.85;;
58338;SDS011;48278;52.704;6.536;2023-02-22T12:37:57;99.90;;;25.85;;
58338;SDS011;48278;52.704;6.536;2023-02-22T12:43:22;101.85;;;24.90;;
58338;SDS011;48278;52.704;6.536;2023-02-22T12:51:39;102.88;;;26.10;;
58338;SDS011;48278;52.704;6.536;2023-02-22T12:59:50;94.15;;;25.65;;
58338;SDS011;48278;52.704;6.536;2023-02-22T13:02:22;85.53;;;24.40;;
58338;SDS011;48278;52.704;6.536;2023-02-22T13:05:01;84.80;;;23.55;;
58338;SDS011;48278;52.704;6.536;2023-02-22T13:10:02;97.45;;;25.08;;
58338;SDS011;48278;52.704;6.536;2023-02-22T13:18:18;86.95;;;24.13;;
58338;SDS011;48278;52.704;6.536;2023-02-22T13:20:47;88.60;;;23.52;;
58338;SDS011;48278;52.704;6.536;2023-02-22T13:29:05;80.03;;;23.63;;
58338;SDS011;48278;52.704;6.536;2023-02-22T13:31:41;77.68;;;22.42;;
58338;SDS011;48278;52.704;6.536;2023-02-22T13:54:40;69.22;;;19.90;;
58338;SDS011;48278;52.704;6.536;2023-02-22T14:10:55;73.57;;;22.95;;
58338;SDS011;48278;52.704;6.536;2023-02-22T14:13:27;69.80;;;21.33;;
58338;SDS011;48278;52.704;6.536;2023-02-22T14:18:27;75.57;;;22.73;;
58338;SDS011;48278;52.704;6.536;2023-02-22T14:21:10;78.03;;;23.17;;
58338;SDS011;48278;52.704;6.536;2023-02-22T14:23:43;72.78;;;22.73;;
58338;SDS011;48278;52.704;6.536;2023-02-22T14:26:17;73.68;;;23.45;;
58338;SDS011;48278;52.704;6.536;2023-02-22T14:36:59;74.43;;;23.83;;
58338;SDS011;48278;52.704;6.536;2023-02-22T14:42:24;77.22;;;24.15;;
58338;SDS011;48278;52.704;6.536;2023-02-22T14:45:04;73.55;;;22.88;;
58338;SDS011;48278;52.704;6.536;2023-02-22T14:47:54;83.03;;;26.73;;
58338;SDS011;48278;52.704;6.536;2023-02-22T14:53:12;85.05;;;27.08;;
58338;SDS011;48278;52.704;6.536;2023-02-22T14:56:01;77.07;;;25.37;;
58338;SDS011;48278;52.704;6.536;2023-02-22T14:58:39;76.35;;;26.15;;
58338;SDS011;48278;52.704;6.536;2023-02-22T15:03:55;76.43;;;26.15;;
58338;SDS011;48278;52.704;6.536;2023-02-22T15:06:26;75.35;;;23.48;;
58338;SDS011;48278;52.704;6.536;2023-02-22T15:11:32;77.60;;;25.90;;
58338;SDS011;48278;52.704;6.536;2023-02-22T15:13:59;72.22;;;24.73;;
58338;SDS011;48278;52.704;6.536;2023-02-22T15:16:27;81.57;;;25.48;;
58338;SDS011;48278;52.704;6.536;2023-02-22T15:18:58;81.07;;;26.38;;
58338;SDS011;48278;52.704;6.536;2023-02-22T15:21:26;79.50;;;26.80;;
58338;SDS011;48278;52.704;6.536;2023-02-22T15:24:00;78.90;;;26.80;;
58338;SDS011;48278;52.704;6.536;2023-02-22T15:31:48;81.93;;;26.33;;
58338;SDS011;48278;52.704;6.536;2023-02-22T15:34:33;70.80;;;24.88;;
58338;SDS011;48278;52.704;6.536;2023-02-22T15:37:19;82.15;;;27.15;;
58338;SDS011;48278;52.704;6.536;2023-02-22T15:39:49;75.20;;;26.13;;
58338;SDS011;48278;52.704;6.536;2023-02-22T15:42:23;74.95;;;25.58;;
58338;SDS011;48278;52.704;6.536;2023-02-22T15:44:51;78.90;;;25.20;;
58338;SDS011;48278;52.704;6.536;2023-02-22T15:52:53;85.40;;;26.25;;
58338;SDS011;48278;52.704;6.536;2023-02-22T15:55:35;81.65;;;27.00;;
58338;SDS011;48278;52.704;6.536;2023-02-22T15:58:08;81.18;;;25.83;;
58338;SDS011;48278;52.704;6.536;2023-02-22T16:00:41;80.07;;;26.30;;
58338;SDS011;48278;52.704;6.536;2023-02-22T16:03:15;76.53;;;26.05;;
58338;SDS011;48278;52.704;6.536;2023-02-22T16:05:50;79.55;;;27.88;;
58338;SDS011;48278;52.704;6.536;2023-02-22T16:08:27;79.68;;;26.40;;
58338;SDS011;48278;52.704;6.536;2023-02-22T16:13:59;79.55;;;26.25;;
58338;SDS011;48278;52.704;6.536;2023-02-22T16:16:32;83.22;;;26.65;;
58338;SDS011;48278;52.704;6.536;2023-02-22T16:21:59;80.60;;;27.83;;
58338;SDS011;48278;52.704;6.536;2023-02-22T16:24:33;81.40;;;27.35;;
58338;SDS011;48278;52.704;6.536;2023-02-22T16:29:35;84.10;;;28.35;;
58338;SDS011;48278;52.704;6.536;2023-02-22T16:32:00;85.63;;;27.70;;
58338;SDS011;48278;52.704;6.536;2023-02-22T16:34:27;83.88;;;28.05;;
58338;SDS011;48278;52.704;6.536;2023-02-22T16:36:53;79.40;;;27.90;;
58338;SDS011;48278;52.704;6.536;2023-02-22T16:41:58;83.63;;;27.10;;
58338;SDS011;48278;52.704;6.536;2023-02-22T16:44:25;81.38;;;26.98;;
58338;SDS011;48278;52.704;6.536;2023-02-22T16:46:53;77.95;;;25.80;;
58338;SDS011;48278;52.704;6.536;2023-02-22T16:49:21;78.53;;;25.98;;
58338;SDS011;48278;52.704;6.536;2023-02-22T16:51:55;83.63;;;27.08;;
58338;SDS011;48278;52.704;6.536;2023-02-22T16:54:29;82.43;;;26.60;;
58338;SDS011;48278;52.704;6.536;2023-02-22T16:56:58;81.28;;;26.88;;
58338;SDS011;48278;52.704;6.536;2023-02-22T16:59:27;85.65;;;29.10;;
58338;SDS011;48278;52.704;6.536;2023-02-22T17:01:56;93.50;;;29.05;;
58338;SDS011;48278;52.704;6.536;2023-02-22T17:04:23;88.95;;;29.83;;
58338;SDS011;48278;52.704;6.536;2023-02-22T17:06:50;92.95;;;29.05;;
58338;SDS011;48278;52.704;6.536;2023-02-22T17:09:17;80.68;;;27.33;;
58338;SDS011;48278;52.704;6.536;2023-02-22T17:11:44;93.88;;;28.80;;
58338;SDS011;48278;52.704;6.536;2023-02-22T17:14:19;87.10;;;28.10;;
58338;SDS011;48278;52.704;6.536;2023-02-22T17:16:50;89.53;;;28.45;;
58338;SDS011;48278;52.704;6.536;2023-02-22T17:19:20;89.60;;;28.35;;
58338;SDS011;48278;52.704;6.536;2023-02-22T17:21:48;91.57;;;27.70;;
58338;SDS011;48278;52.704;6.536;2023-02-22T17:24:18;89.93;;;26.10;;
58338;SDS011;48278;52.704;6.536;2023-02-22T17:26:49;84.45;;;24.95;;
58338;SDS011;48278;52.704;6.536;2023-02-22T17:29:17;87.68;;;26.38;;
58338;SDS011;48278;52.704;6.536;2023-02-22T17:31:42;88.28;;;26.00;;
58338;SDS011;48278;52.704;6.536;2023-02-22T17:34:09;86.97;;;25.45;;
58338;SDS011;48278;52.704;6.536;2023-02-22T17:36:35;90.30;;;27.67;;
58338;SDS011;48278;52.704;6.536;2023-02-22T17:39:00;87.47;;;24.83;;
58338;SDS011;48278;52.704;6.536;2023-02-22T17:41:28;83.80;;;25.70;;
58338;SDS011;48278;52.704;6.536;2023-02-22T17:43:54;82.85;;;25.90;;
58338;SDS011;48278;52.704;6.536;2023-02-22T17:46:22;90.82;;;26.33;;
58338;SDS011;48278;52.704;6.536;2023-02-22T17:51:18;83.72;;;26.48;;
58338;SDS011;48278;52.704;6.536;2023-02-22T17:53:45;93.90;;;29.75;;
58338;SDS011;48278;52.704;6.536;2023-02-22T17:56:12;92.43;;;29.33;;
58338;SDS011;48278;52.704;6.536;2023-02-22T17:58:42;92.45;;;28.30;;
58338;SDS011;48278;52.704;6.536;2023-02-22T18:04:04;99.60;;;28.92;;
58338;SDS011;48278;52.704;6.536;2023-02-22T18:06:30;95.10;;;30.20;;
58338;SDS011;48278;52.704;6.536;2023-02-22T18:08:57;117.75;;;38.85;;
58338;SDS011;48278;52.704;6.536;2023-02-22T18:11:24;114.75;;;39.75;;
58338;SDS011;48278;52.704;6.536;2023-02-22T18:13:56;92.55;;;29.05;;
58338;SDS011;48278;52.704;6.536;2023-02-22T18:16:23;92.88;;;29.35;;